Llanbrynmair, United Kingdom
Current Conditions -  °F | °C
As of 12:50 AM on Saturday 22 Nov 2014 (Local Time) from EGOS Reporting Station
Rain Showers Rain Showers  
Wind Chill:   Ceiling: 400
Heat Index:   Visibility: 2mi
Dew Point:   Wind: 12mph
Humidity: 100%   Direction: 120°ESE
Pressure: 29.77"   Gusts: NA
Location:  52.61°N, 3.63°W
Report Text: EGOS 220050Z AUTO 12010KT 3200 -SHRA OVC004/// 08/08 Q1008
Loading
Personal Weather Stations






























Interactive Weather Map New forecast layout! Learn more

10-Day Weather Forecast

Advertisements
Track Severe Weather on mobile